sensor_id;sensor_type;location;lat;lon;timestamp;pressure;altitude;pressure_sealevel;temperature;humidity
14089;BME280;7120;52.890;6.040;2024-03-22T00:01:47;101904.69;;;11.37;100.00
14089;BME280;7120;52.890;6.040;2024-03-22T00:04:13;101913.34;;;11.54;100.00
14089;BME280;7120;52.890;6.040;2024-03-22T00:06:40;101906.53;;;11.51;100.00
14089;BME280;7120;52.890;6.040;2024-03-22T00:09:06;101909.28;;;11.46;100.00
14089;BME280;7120;52.890;6.040;2024-03-22T00:11:31;101908.66;;;11.60;100.00
14089;BME280;7120;52.890;6.040;2024-03-22T00:13:57;101896.97;;;11.49;100.00
14089;BME280;7120;52.890;6.040;2024-03-22T00:16:22;101902.84;;;11.71;100.00
14089;BME280;7120;52.890;6.040;2024-03-22T00:18:47;101895.06;;;11.39;100.00
14089;BME280;7120;52.890;6.040;2024-03-22T00:21:13;101889.81;;;11.48;100.00
14089;BME280;7120;52.890;6.040;2024-03-22T00:23:38;101889.47;;;11.65;100.00
14089;BME280;7120;52.890;6.040;2024-03-22T00:26:03;101888.06;;;11.67;100.00
14089;BME280;7120;52.890;6.040;2024-03-22T00:28:29;101881.69;;;11.82;100.00
14089;BME280;7120;52.890;6.040;2024-03-22T00:30:54;101896.56;;;11.71;100.00
14089;BME280;7120;52.890;6.040;2024-03-22T00:33:19;101871.81;;;11.86;100.00
14089;BME280;7120;52.890;6.040;2024-03-22T00:35:45;101864.97;;;11.83;100.00
14089;BME280;7120;52.890;6.040;2024-03-22T00:38:10;101862.28;;;11.73;100.00
14089;BME280;7120;52.890;6.040;2024-03-22T00:40:35;101868.28;;;11.75;100.00
14089;BME280;7120;52.890;6.040;2024-03-22T00:43:01;101861.69;;;11.76;100.00
14089;BME280;7120;52.890;6.040;2024-03-22T00:45:26;101856.69;;;11.94;100.00
14089;BME280;7120;52.890;6.040;2024-03-22T00:47:51;101850.69;;;11.92;100.00
14089;BME280;7120;52.890;6.040;2024-03-22T00:50:17;101841.88;;;11.95;100.00
14089;BME280;7120;52.890;6.040;2024-03-22T00:52:42;101841.34;;;11.93;100.00
14089;BME280;7120;52.890;6.040;2024-03-22T00:55:07;101840.78;;;11.91;100.00
14089;BME280;7120;52.890;6.040;2024-03-22T00:57:33;101846.19;;;12.01;100.00
14089;BME280;7120;52.890;6.040;2024-03-22T00:59:58;101832.66;;;11.80;100.00
14089;BME280;7120;52.890;6.040;2024-03-22T01:02:23;101831.81;;;11.85;100.00
14089;BME280;7120;52.890;6.040;2024-03-22T01:04:49;101830.44;;;11.82;100.00
14089;BME280;7120;52.890;6.040;2024-03-22T01:07:14;101828.47;;;11.88;100.00
14089;BME280;7120;52.890;6.040;2024-03-22T01:09:40;101824.06;;;11.92;100.00
14089;BME280;7120;52.890;6.040;2024-03-22T01:12:05;101820.53;;;11.92;100.00
14089;BME280;7120;52.890;6.040;2024-03-22T01:14:31;101809.41;;;12.07;100.00
14089;BME280;7120;52.890;6.040;2024-03-22T01:16:56;101793.25;;;12.05;100.00
14089;BME280;7120;52.890;6.040;2024-03-22T01:19:22;101800.78;;;11.90;100.00
14089;BME280;7120;52.890;6.040;2024-03-22T01:21:48;101797.19;;;11.94;100.00
14089;BME280;7120;52.890;6.040;2024-03-22T01:24:13;101803.59;;;11.85;100.00
14089;BME280;7120;52.890;6.040;2024-03-22T01:26:39;101795.69;;;12.07;100.00
14089;BME280;7120;52.890;6.040;2024-03-22T01:29:04;101791.81;;;12.13;100.00
14089;BME280;7120;52.890;6.040;2024-03-22T01:31:29;101778.44;;;12.06;100.00
14089;BME280;7120;52.890;6.040;2024-03-22T01:33:55;101789.81;;;12.19;100.00
14089;BME280;7120;52.890;6.040;2024-03-22T01:36:20;101785.22;;;12.14;100.00
14089;BME280;7120;52.890;6.040;2024-03-22T01:38:45;101783.66;;;12.03;100.00
14089;BME280;7120;52.890;6.040;2024-03-22T01:41:11;101783.94;;;12.30;100.00
14089;BME280;7120;52.890;6.040;2024-03-22T01:43:36;101789.22;;;12.27;100.00
14089;BME280;7120;52.890;6.040;2024-03-22T01:46:01;101789.22;;;12.27;100.00
14089;BME280;7120;52.890;6.040;2024-03-22T01:48:27;101786.69;;;12.30;100.00
14089;BME280;7120;52.890;6.040;2024-03-22T01:50:52;101779.22;;;12.36;100.00
14089;BME280;7120;52.890;6.040;2024-03-22T01:53:18;101781.41;;;12.10;100.00
14089;BME280;7120;52.890;6.040;2024-03-22T01:55:43;101780.34;;;12.35;100.00
14089;BME280;7120;52.890;6.040;2024-03-22T01:58:09;101778.25;;;12.51;100.00
14089;BME280;7120;52.890;6.040;2024-03-22T02:00:35;101770.81;;;12.27;100.00
14089;BME280;7120;52.890;6.040;2024-03-22T02:03:00;101762.81;;;12.31;100.00
14089;BME280;7120;52.890;6.040;2024-03-22T02:05:26;101756.91;;;12.19;100.00
14089;BME280;7120;52.890;6.040;2024-03-22T02:07:51;101759.50;;;12.34;100.00
14089;BME280;7120;52.890;6.040;2024-03-22T02:10:17;101763.72;;;12.26;100.00
14089;BME280;7120;52.890;6.040;2024-03-22T02:12:42;101754.16;;;12.19;100.00
14089;BME280;7120;52.890;6.040;2024-03-22T02:15:08;101760.78;;;12.42;100.00
14089;BME280;7120;52.890;6.040;2024-03-22T02:17:34;101743.56;;;12.36;100.00
14089;BME280;7120;52.890;6.040;2024-03-22T02:20:00;101737.69;;;12.48;100.00
14089;BME280;7120;52.890;6.040;2024-03-22T02:22:26;101733.47;;;12.31;100.00
14089;BME280;7120;52.890;6.040;2024-03-22T02:24:52;101728.63;;;12.23;100.00
14089;BME280;7120;52.890;6.040;2024-03-22T02:27:18;101732.88;;;12.10;100.00
14089;BME280;7120;52.890;6.040;2024-03-22T02:29:43;101714.34;;;12.26;100.00
14089;BME280;7120;52.890;6.040;2024-03-22T02:32:09;101715.06;;;12.32;100.00
14089;BME280;7120;52.890;6.040;2024-03-22T02:34:34;101710.00;;;12.20;100.00
14089;BME280;7120;52.890;6.040;2024-03-22T02:37:00;101710.75;;;12.26;100.00
14089;BME280;7120;52.890;6.040;2024-03-22T02:39:25;101699.66;;;12.12;100.00
14089;BME280;7120;52.890;6.040;2024-03-22T02:41:51;101701.13;;;12.28;100.00
14089;BME280;7120;52.890;6.040;2024-03-22T02:44:16;101700.22;;;12.14;100.00
14089;BME280;7120;52.890;6.040;2024-03-22T02:46:41;101699.91;;;12.16;100.00
14089;BME280;7120;52.890;6.040;2024-03-22T02:49:07;101690.91;;;12.10;100.00
14089;BME280;7120;52.890;6.040;2024-03-22T02:51:32;101688.19;;;12.10;100.00
14089;BME280;7120;52.890;6.040;2024-03-22T02:53:58;101681.00;;;12.14;100.00
14089;BME280;7120;52.890;6.040;2024-03-22T02:56:23;101685.03;;;12.22;100.00
14089;BME280;7120;52.890;6.040;2024-03-22T02:58:49;101687.72;;;12.27;100.00
14089;BME280;7120;52.890;6.040;2024-03-22T03:01:14;101677.94;;;12.21;100.00
14089;BME280;7120;52.890;6.040;2024-03-22T03:03:40;101673.59;;;12.15;100.00
14089;BME280;7120;52.890;6.040;2024-03-22T03:06:05;101652.81;;;12.32;100.00
14089;BME280;7120;52.890;6.040;2024-03-22T03:08:31;101665.44;;;12.33;100.00
14089;BME280;7120;52.890;6.040;2024-03-22T03:10:56;101651.06;;;12.18;100.00
14089;BME280;7120;52.890;6.040;2024-03-22T03:13:21;101654.06;;;12.40;100.00
14089;BME280;7120;52.890;6.040;2024-03-22T03:15:47;101657.66;;;12.17;100.00
14089;BME280;7120;52.890;6.040;2024-03-22T03:18:12;101656.56;;;12.18;100.00
14089;BME280;7120;52.890;6.040;2024-03-22T03:20:37;101648.69;;;12.11;100.00
14089;BME280;7120;52.890;6.040;2024-03-22T03:23:03;101649.25;;;12.32;100.00
14089;BME280;7120;52.890;6.040;2024-03-22T03:25:28;101634.72;;;12.31;100.00
14089;BME280;7120;52.890;6.040;2024-03-22T03:27:54;101625.91;;;12.34;100.00
14089;BME280;7120;52.890;6.040;2024-03-22T03:30:19;101629.44;;;12.16;100.00
14089;BME280;7120;52.890;6.040;2024-03-22T03:32:44;101628.91;;;12.14;100.00
14089;BME280;7120;52.890;6.040;2024-03-22T03:35:10;101622.66;;;12.08;100.00
14089;BME280;7120;52.890;6.040;2024-03-22T03:37:35;101622.81;;;11.98;100.00
14089;BME280;7120;52.890;6.040;2024-03-22T03:40:00;101622.16;;;12.25;100.00
14089;BME280;7120;52.890;6.040;2024-03-22T03:42:26;101640.59;;;12.01;100.00
14089;BME280;7120;52.890;6.040;2024-03-22T03:44:51;101632.31;;;12.06;100.00
14089;BME280;7120;52.890;6.040;2024-03-22T03:47:17;101624.44;;;11.99;100.00
14089;BME280;7120;52.890;6.040;2024-03-22T03:49:42;101622.63;;;12.14;100.00
14089;BME280;7120;52.890;6.040;2024-03-22T03:52:09;101623.44;;;12.14;100.00
14089;BME280;7120;52.890;6.040;2024-03-22T03:54:35;101631.34;;;12.16;100.00
14089;BME280;7120;52.890;6.040;2024-03-22T03:57:00;101628.31;;;12.17;100.00
14089;BME280;7120;52.890;6.040;2024-03-22T03:59:25;101631.84;;;11.99;100.00
14089;BME280;7120;52.890;6.040;2024-03-22T04:01:51;101615.59;;;12.26;100.00
14089;BME280;7120;52.890;6.040;2024-03-22T04:04:16;101630.94;;;12.03;100.00
14089;BME280;7120;52.890;6.040;2024-03-22T04:06:44;101606.75;;;11.87;100.00
14089;BME280;7120;52.890;6.040;2024-03-22T04:09:09;101616.06;;;12.09;100.00
14089;BME280;7120;52.890;6.040;2024-03-22T04:11:35;101624.28;;;12.09;100.00
14089;BME280;7120;52.890;6.040;2024-03-22T04:14:00;101611.75;;;12.03;100.00
14089;BME280;7120;52.890;6.040;2024-03-22T04:16:25;101618.25;;;11.89;100.00
14089;BME280;7120;52.890;6.040;2024-03-22T04:18:51;101613.94;;;12.06;100.00
14089;BME280;7120;52.890;6.040;2024-03-22T04:21:17;101611.69;;;12.08;100.00
14089;BME280;7120;52.890;6.040;2024-03-22T04:23:42;101607.84;;;12.09;100.00
14089;BME280;7120;52.890;6.040;2024-03-22T04:26:08;101613.63;;;12.08;100.00
14089;BME280;7120;52.890;6.040;2024-03-22T04:28:33;101602.66;;;12.08;100.00
14089;BME280;7120;52.890;6.040;2024-03-22T04:31:02;101613.56;;;12.13;100.00
14089;BME280;7120;52.890;6.040;2024-03-22T04:33:28;101599.63;;;12.09;100.00
14089;BME280;7120;52.890;6.040;2024-03-22T04:35:54;101593.16;;;12.00;100.00
14089;BME280;7120;52.890;6.040;2024-03-22T04:38:20;101588.09;;;12.13;100.00
14089;BME280;7120;52.890;6.040;2024-03-22T04:40:45;101573.00;;;12.10;100.00
14089;BME280;7120;52.890;6.040;2024-03-22T04:43:11;101569.06;;;11.97;100.00
14089;BME280;7120;52.890;6.040;2024-03-22T04:45:36;101569.56;;;11.80;100.00
14089;BME280;7120;52.890;6.040;2024-03-22T04:48:03;101554.38;;;11.88;100.00
14089;BME280;7120;52.890;6.040;2024-03-22T04:50:29;101557.38;;;11.92;100.00
14089;BME280;7120;52.890;6.040;2024-03-22T04:52:55;101559.56;;;11.90;100.00
14089;BME280;7120;52.890;6.040;2024-03-22T04:55:20;101555.34;;;11.97;100.00
14089;BME280;7120;52.890;6.040;2024-03-22T04:57:45;101551.06;;;11.91;100.00
14089;BME280;7120;52.890;6.040;2024-03-22T05:00:11;101537.81;;;11.98;100.00
14089;BME280;7120;52.890;6.040;2024-03-22T05:02:37;101539.81;;;11.93;100.00
14089;BME280;7120;52.890;6.040;2024-03-22T05:05:02;101555.00;;;12.04;100.00
14089;BME280;7120;52.890;6.040;2024-03-22T05:07:27;101546.97;;;11.89;100.00
14089;BME280;7120;52.890;6.040;2024-03-22T05:09:53;101548.91;;;11.88;100.00
14089;BME280;7120;52.890;6.040;2024-03-22T05:12:19;101553.56;;;11.88;100.00
14089;BME280;7120;52.890;6.040;2024-03-22T05:14:44;101539.50;;;11.94;100.00
14089;BME280;7120;52.890;6.040;2024-03-22T05:17:09;101543.22;;;11.85;100.00
14089;BME280;7120;52.890;6.040;2024-03-22T05:19:34;101544.75;;;11.91;100.00
14089;BME280;7120;52.890;6.040;2024-03-22T05:22:00;101561.28;;;11.86;100.00
14089;BME280;7120;52.890;6.040;2024-03-22T05:24:26;101558.69;;;11.70;100.00
14089;BME280;7120;52.890;6.040;2024-03-22T05:26:51;101576.00;;;11.66;100.00
14089;BME280;7120;52.890;6.040;2024-03-22T05:29:16;101569.19;;;11.63;100.00
14089;BME280;7120;52.890;6.040;2024-03-22T05:31:46;101573.91;;;11.58;100.00
14089;BME280;7120;52.890;6.040;2024-03-22T05:34:13;101570.63;;;11.55;100.00
14089;BME280;7120;52.890;6.040;2024-03-22T05:36:39;101562.41;;;11.55;100.00
14089;BME280;7120;52.890;6.040;2024-03-22T05:39:05;101563.47;;;11.60;100.00
14089;BME280;7120;52.890;6.040;2024-03-22T05:41:30;101552.72;;;11.39;100.00
14089;BME280;7120;52.890;6.040;2024-03-22T05:43:56;101543.41;;;11.40;100.00
14089;BME280;7120;52.890;6.040;2024-03-22T05:46:21;101555.13;;;11.46;100.00
14089;BME280;7120;52.890;6.040;2024-03-22T05:48:46;101543.31;;;11.50;100.00
14089;BME280;7120;52.890;6.040;2024-03-22T05:51:14;101545.88;;;11.42;100.00
14089;BME280;7120;52.890;6.040;2024-03-22T05:53:39;101538.97;;;11.44;100.00
14089;BME280;7120;52.890;6.040;2024-03-22T05:56:05;101544.84;;;11.33;100.00
14089;BME280;7120;52.890;6.040;2024-03-22T05:58:30;101550.78;;;11.40;100.00
14089;BME280;7120;52.890;6.040;2024-03-22T06:00:56;101545.28;;;11.45;100.00
14089;BME280;7120;52.890;6.040;2024-03-22T06:03:21;101545.97;;;11.55;100.00
14089;BME280;7120;52.890;6.040;2024-03-22T06:05:46;101548.81;;;11.45;100.00
14089;BME280;7120;52.890;6.040;2024-03-22T06:08:12;101548.53;;;11.47;100.00
14089;BME280;7120;52.890;6.040;2024-03-22T06:10:37;101542.34;;;11.36;100.00
14089;BME280;7120;52.890;6.040;2024-03-22T06:13:03;101543.81;;;11.52;100.00
14089;BME280;7120;52.890;6.040;2024-03-22T06:15:29;101542.53;;;11.45;100.00
14089;BME280;7120;52.890;6.040;2024-03-22T06:17:54;101550.28;;;11.38;100.00
14089;BME280;7120;52.890;6.040;2024-03-22T06:20:19;101549.41;;;11.42;100.00
14089;BME280;7120;52.890;6.040;2024-03-22T06:22:45;101549.34;;;11.47;100.00
14089;BME280;7120;52.890;6.040;2024-03-22T06:25:10;101549.34;;;11.47;100.00
14089;BME280;7120;52.890;6.040;2024-03-22T06:27:35;101537.00;;;11.50;100.00
14089;BME280;7120;52.890;6.040;2024-03-22T06:30:01;101521.44;;;11.45;100.00
14089;BME280;7120;52.890;6.040;2024-03-22T06:32:26;101524.53;;;11.39;100.00
14089;BME280;7120;52.890;6.040;2024-03-22T06:34:52;101520.22;;;11.57;100.00
14089;BME280;7120;52.890;6.040;2024-03-22T06:37:17;101520.94;;;11.62;100.00
14089;BME280;7120;52.890;6.040;2024-03-22T06:39:42;101530.59;;;11.60;100.00
14089;BME280;7120;52.890;6.040;2024-03-22T06:42:07;101525.91;;;11.60;100.00
14089;BME280;7120;52.890;6.040;2024-03-22T06:44:33;101521.78;;;11.63;100.00
14089;BME280;7120;52.890;6.040;2024-03-22T06:46:58;101513.28;;;11.64;100.00
14089;BME280;7120;52.890;6.040;2024-03-22T06:49:24;101516.31;;;11.87;100.00
14089;BME280;7120;52.890;6.040;2024-03-22T06:51:50;101509.22;;;11.86;100.00
14089;BME280;7120;52.890;6.040;2024-03-22T06:54:15;101508.47;;;11.99;100.00
14089;BME280;7120;52.890;6.040;2024-03-22T06:56:41;101509.56;;;11.98;100.00
14089;BME280;7120;52.890;6.040;2024-03-22T06:59:06;101519.81;;;11.92;100.00
14089;BME280;7120;52.890;6.040;2024-03-22T07:01:31;101507.56;;;11.85;100.00
14089;BME280;7120;52.890;6.040;2024-03-22T07:03:57;101499.72;;;11.97;100.00
14089;BME280;7120;52.890;6.040;2024-03-22T07:06:22;101505.13;;;12.02;100.00
14089;BME280;7120;52.890;6.040;2024-03-22T07:08:47;101493.00;;;12.08;100.00
14089;BME280;7120;52.890;6.040;2024-03-22T07:11:13;101499.34;;;12.03;100.00
14089;BME280;7120;52.890;6.040;2024-03-22T07:13:38;101507.44;;;11.95;100.00
14089;BME280;7120;52.890;6.040;2024-03-22T07:16:04;101501.13;;;11.94;100.00
14089;BME280;7120;52.890;6.040;2024-03-22T07:18:30;101501.06;;;12.18;100.00
14089;BME280;7120;52.890;6.040;2024-03-22T07:20:55;101504.03;;;12.03;100.00
14089;BME280;7120;52.890;6.040;2024-03-22T07:23:20;101506.69;;;11.89;100.00
14089;BME280;7120;52.890;6.040;2024-03-22T07:25:46;101507.97;;;12.16;100.00
14089;BME280;7120;52.890;6.040;2024-03-22T07:28:13;101496.94;;;12.21;100.00
14089;BME280;7120;52.890;6.040;2024-03-22T07:30:39;101498.47;;;12.08;100.00
14089;BME280;7120;52.890;6.040;2024-03-22T07:33:04;101494.31;;;12.10;100.00
14089;BME280;7120;52.890;6.040;2024-03-22T07:35:29;101499.72;;;11.97;100.00
14089;BME280;7120;52.890;6.040;2024-03-22T07:37:56;101497.44;;;12.04;100.00
14089;BME280;7120;52.890;6.040;2024-03-22T07:40:21;101494.63;;;12.09;100.00
14089;BME280;7120;52.890;6.040;2024-03-22T07:42:47;101500.47;;;12.02;100.00
14089;BME280;7120;52.890;6.040;2024-03-22T07:45:12;101507.88;;;12.02;100.00
14089;BME280;7120;52.890;6.040;2024-03-22T07:47:38;101514.38;;;11.87;100.00
14089;BME280;7120;52.890;6.040;2024-03-22T07:50:04;101520.34;;;12.13;100.00
14089;BME280;7120;52.890;6.040;2024-03-22T07:52:29;101509.28;;;12.18;100.00
14089;BME280;7120;52.890;6.040;2024-03-22T07:54:55;101523.13;;;11.89;100.00
14089;BME280;7120;52.890;6.040;2024-03-22T07:57:20;101521.97;;;12.14;100.00
14089;BME280;7120;52.890;6.040;2024-03-22T07:59:48;101512.25;;;11.84;100.00
14089;BME280;7120;52.890;6.040;2024-03-22T08:02:14;101518.06;;;11.77;100.00
14089;BME280;7120;52.890;6.040;2024-03-22T08:04:39;101513.97;;;11.75;100.00
14089;BME280;7120;52.890;6.040;2024-03-22T08:07:04;101521.84;;;11.58;100.00
14089;BME280;7120;52.890;6.040;2024-03-22T08:09:30;101512.94;;;11.71;100.00
14089;BME280;7120;52.890;6.040;2024-03-22T08:11:56;101508.63;;;11.65;100.00
14089;BME280;7120;52.890;6.040;2024-03-22T08:14:21;101506.13;;;11.44;100.00
14089;BME280;7120;52.890;6.040;2024-03-22T08:16:46;101516.06;;;11.59;100.00
14089;BME280;7120;52.890;6.040;2024-03-22T08:19:12;101509.16;;;11.43;100.00
14089;BME280;7120;52.890;6.040;2024-03-22T08:21:37;101508.34;;;11.42;100.00
14089;BME280;7120;52.890;6.040;2024-03-22T08:24:03;101506.22;;;11.58;100.00
14089;BME280;7120;52.890;6.040;2024-03-22T08:26:28;101509.06;;;11.48;100.00
14089;BME280;7120;52.890;6.040;2024-03-22T08:28:53;101511.88;;;11.43;100.00
14089;BME280;7120;52.890;6.040;2024-03-22T08:31:19;101508.25;;;11.71;100.00
14089;BME280;7120;52.890;6.040;2024-03-22T08:33:50;101508.81;;;11.68;100.00
14089;BME280;7120;52.890;6.040;2024-03-22T08:36:16;101512.44;;;11.40;100.00
14089;BME280;7120;52.890;6.040;2024-03-22T08:38:42;101514.34;;;11.44;100.00
14089;BME280;7120;52.890;6.040;2024-03-22T08:41:07;101511.19;;;11.56;100.00
14089;BME280;7120;52.890;6.040;2024-03-22T08:43:32;101498.00;;;11.82;100.00
14089;BME280;7120;52.890;6.040;2024-03-22T08:45:58;101499.22;;;11.71;100.00
14089;BME280;7120;52.890;6.040;2024-03-22T08:48:23;101490.09;;;11.75;100.00
14089;BME280;7120;52.890;6.040;2024-03-22T08:50:48;101494.38;;;11.63;100.00
14089;BME280;7120;52.890;6.040;2024-03-22T08:53:14;101496.91;;;11.59;100.00
14089;BME280;7120;52.890;6.040;2024-03-22T08:55:47;101490.19;;;11.70;100.00
14089;BME280;7120;52.890;6.040;2024-03-22T08:58:13;101493.84;;;11.61;100.00
14089;BME280;7120;52.890;6.040;2024-03-22T09:00:41;101490.00;;;11.62;100.00
14089;BME280;7120;52.890;6.040;2024-03-22T09:03:06;101497.06;;;11.68;100.00
14089;BME280;7120;52.890;6.040;2024-03-22T09:05:31;101497.56;;;11.70;100.00
14089;BME280;7120;52.890;6.040;2024-03-22T09:07:58;101490.13;;;11.51;100.00
14089;BME280;7120;52.890;6.040;2024-03-22T09:10:24;101499.38;;;11.55;100.00
14089;BME280;7120;52.890;6.040;2024-03-22T09:12:49;101515.56;;;11.57;100.00
14089;BME280;7120;52.890;6.040;2024-03-22T09:15:17;101505.88;;;11.41;100.00
14089;BME280;7120;52.890;6.040;2024-03-22T09:17:43;101495.03;;;11.54;100.00
14089;BME280;7120;52.890;6.040;2024-03-22T09:20:08;101512.09;;;11.46;100.00
14089;BME280;7120;52.890;6.040;2024-03-22T09:22:34;101507.13;;;11.48;100.00
14089;BME280;7120;52.890;6.040;2024-03-22T09:25:00;101492.97;;;11.41;100.00
14089;BME280;7120;52.890;6.040;2024-03-22T09:27:25;101496.66;;;11.55;100.00
14089;BME280;7120;52.890;6.040;2024-03-22T09:29:51;101507.06;;;11.35;100.00
14089;BME280;7120;52.890;6.040;2024-03-22T09:32:17;101508.59;;;11.41;100.00
14089;BME280;7120;52.890;6.040;2024-03-22T09:34:43;101496.44;;;11.52;100.00
14089;BME280;7120;52.890;6.040;2024-03-22T09:37:08;101500.38;;;11.41;100.00
14089;BME280;7120;52.890;6.040;2024-03-22T09:39:34;101502.84;;;11.42;100.00
14089;BME280;7120;52.890;6.040;2024-03-22T09:42:00;101497.59;;;11.46;100.00
14089;BME280;7120;52.890;6.040;2024-03-22T09:44:32;101499.31;;;11.42;100.00
14089;BME280;7120;52.890;6.040;2024-03-22T09:46:59;101491.06;;;11.66;100.00
14089;BME280;7120;52.890;6.040;2024-03-22T09:49:25;101488.97;;;11.58;100.00
14089;BME280;7120;52.890;6.040;2024-03-22T09:51:51;101497.00;;;11.73;100.00
14089;BME280;7120;52.890;6.040;2024-03-22T09:54:16;101493.03;;;11.60;100.00
14089;BME280;7120;52.890;6.040;2024-03-22T09:56:42;101500.31;;;11.70;100.00
14089;BME280;7120;52.890;6.040;2024-03-22T09:59:09;101497.81;;;11.73;100.00
14089;BME280;7120;52.890;6.040;2024-03-22T10:01:36;101503.41;;;11.87;100.00
14089;BME280;7120;52.890;6.040;2024-03-22T10:04:02;101508.41;;;11.80;100.00
14089;BME280;7120;52.890;6.040;2024-03-22T10:06:29;101510.53;;;11.88;100.00
14089;BME280;7120;52.890;6.040;2024-03-22T10:08:54;101516.75;;;11.70;100.00
14089;BME280;7120;52.890;6.040;2024-03-22T10:11:22;101512.03;;;11.75;100.00
14089;BME280;7120;52.890;6.040;2024-03-22T10:13:48;101504.72;;;12.14;100.00
14089;BME280;7120;52.890;6.040;2024-03-22T10:16:16;101509.00;;;12.01;100.00
14089;BME280;7120;52.890;6.040;2024-03-22T10:18:41;101491.44;;;12.02;100.00
14089;BME280;7120;52.890;6.040;2024-03-22T10:21:07;101505.16;;;12.21;100.00
14089;BME280;7120;52.890;6.040;2024-03-22T10:23:32;101511.88;;;12.09;100.00
14089;BME280;7120;52.890;6.040;2024-03-22T10:26:01;101510.19;;;12.14;100.00
14089;BME280;7120;52.890;6.040;2024-03-22T10:28:27;101504.25;;;12.25;100.00
14089;BME280;7120;52.890;6.040;2024-03-22T10:30:53;101515.22;;;12.25;100.00
14089;BME280;7120;52.890;6.040;2024-03-22T10:33:19;101506.72;;;12.27;100.00
14089;BME280;7120;52.890;6.040;2024-03-22T10:35:46;101503.72;;;12.04;100.00
14089;BME280;7120;52.890;6.040;2024-03-22T10:38:16;101498.25;;;12.23;100.00
14089;BME280;7120;52.890;6.040;2024-03-22T10:40:44;101500.03;;;12.14;100.00
14089;BME280;7120;52.890;6.040;2024-03-22T10:43:13;101495.66;;;12.13;100.00
14089;BME280;7120;52.890;6.040;2024-03-22T10:45:40;101499.22;;;12.14;100.00
14089;BME280;7120;52.890;6.040;2024-03-22T10:48:09;101497.66;;;12.07;100.00
14089;BME280;7120;52.890;6.040;2024-03-22T10:50:38;101483.97;;;12.26;100.00
14089;BME280;7120;52.890;6.040;2024-03-22T10:53:07;101499.13;;;12.37;100.00
14089;BME280;7120;52.890;6.040;2024-03-22T10:55:42;101494.53;;;12.33;100.00
14089;BME280;7120;52.890;6.040;2024-03-22T10:58:18;101497.00;;;12.34;100.00
14089;BME280;7120;52.890;6.040;2024-03-22T11:00:46;101491.72;;;12.38;100.00
14089;BME280;7120;52.890;6.040;2024-03-22T11:03:13;101492.47;;;12.44;100.00
14089;BME280;7120;52.890;6.040;2024-03-22T11:05:55;101494.22;;;12.53;100.00
14089;BME280;7120;52.890;6.040;2024-03-22T11:08:28;101491.84;;;12.47;100.00
14089;BME280;7120;52.890;6.040;2024-03-22T11:10:56;101481.59;;;12.20;100.00
14089;BME280;7120;52.890;6.040;2024-03-22T11:13:22;101488.03;;;12.29;100.00
14089;BME280;7120;52.890;6.040;2024-03-22T11:15:48;101495.94;;;11.93;100.00
14089;BME280;7120;52.890;6.040;2024-03-22T11:18:14;101487.19;;;11.91;100.00
14089;BME280;7120;52.890;6.040;2024-03-22T11:20:41;101485.34;;;12.05;100.00
14089;BME280;7120;52.890;6.040;2024-03-22T11:23:07;101485.97;;;12.21;100.00
14089;BME280;7120;52.890;6.040;2024-03-22T11:25:34;101487.59;;;11.84;100.00
14089;BME280;7120;52.890;6.040;2024-03-22T11:28:00;101481.78;;;12.04;100.00
14089;BME280;7120;52.890;6.040;2024-03-22T11:30:32;101483.06;;;11.93;100.00
14089;BME280;7120;52.890;6.040;2024-03-22T11:33:00;101478.97;;;11.91;100.00
14089;BME280;7120;52.890;6.040;2024-03-22T11:35:26;101479.63;;;11.82;100.00
14089;BME280;7120;52.890;6.040;2024-03-22T11:37:51;101480.56;;;11.73;100.00
14089;BME280;7120;52.890;6.040;2024-03-22T11:40:17;101483.50;;;11.58;100.00
14089;BME280;7120;52.890;6.040;2024-03-22T11:42:46;101486.00;;;11.54;100.00
14089;BME280;7120;52.890;6.040;2024-03-22T11:45:14;101474.69;;;11.61;100.00
14089;BME280;7120;52.890;6.040;2024-03-22T11:47:40;101475.47;;;11.42;100.00
14089;BME280;7120;52.890;6.040;2024-03-22T11:50:06;101467.81;;;11.63;100.00
14089;BME280;7120;52.890;6.040;2024-03-22T11:52:31;101484.06;;;11.78;100.00
14089;BME280;7120;52.890;6.040;2024-03-22T11:54:57;101482.81;;;11.90;100.00
14089;BME280;7120;52.890;6.040;2024-03-22T11:57:24;101489.94;;;11.91;100.00
14089;BME280;7120;52.890;6.040;2024-03-22T11:59:50;101479.56;;;11.88;100.00
14089;BME280;7120;52.890;6.040;2024-03-22T12:02:16;101477.69;;;11.83;100.00
14089;BME280;7120;52.890;6.040;2024-03-22T12:04:46;101474.38;;;12.05;100.00
14089;BME280;7120;52.890;6.040;2024-03-22T12:07:16;101475.84;;;11.97;100.00
14089;BME280;7120;52.890;6.040;2024-03-22T12:09:42;101473.22;;;11.92;100.00
14089;BME280;7120;52.890;6.040;2024-03-22T12:12:09;101463.44;;;11.86;100.00
14089;BME280;7120;52.890;6.040;2024-03-22T12:14:35;101461.06;;;11.98;100.00
14089;BME280;7120;52.890;6.040;2024-03-22T12:17:02;101464.63;;;11.99;100.00
14089;BME280;7120;52.890;6.040;2024-03-22T12:19:27;101455.41;;;12.27;100.00
14089;BME280;7120;52.890;6.040;2024-03-22T12:21:53;101461.34;;;12.16;100.00
14089;BME280;7120;52.890;6.040;2024-03-22T12:24:18;101457.44;;;12.54;100.00
14089;BME280;7120;52.890;6.040;2024-03-22T12:26:44;101454.06;;;12.44;100.00
14089;BME280;7120;52.890;6.040;2024-03-22T12:29:09;101444.53;;;12.22;100.00
14089;BME280;7120;52.890;6.040;2024-03-22T12:31:37;101438.59;;;12.15;100.00
14089;BME280;7120;52.890;6.040;2024-03-22T12:34:03;101445.59;;;12.40;100.00
14089;BME280;7120;52.890;6.040;2024-03-22T12:36:30;101438.84;;;12.51;100.00
14089;BME280;7120;52.890;6.040;2024-03-22T12:38:55;101438.47;;;12.39;100.00
14089;BME280;7120;52.890;6.040;2024-03-22T12:41:20;101427.63;;;12.80;100.00
14089;BME280;7120;52.890;6.040;2024-03-22T12:43:46;101438.09;;;12.78;100.00